Sachs Harbour Airport, Northwest Territories

Past 24 Hour Conditions

Date / Time
(MDT)
Conditions Temp
(°C)
Humidity
(%)
Dew Point
(°C)
Wind
(km/h)
Pressure
(kPa)
Visibility
(km)
02 September 2015
4:00 N/A 7   91 6 SE 17 101.5 N/A
3:00 N/A 8 88 6 ESE 18 101.4 N/A
2:00 N/A 8 88 6 ESE 21 101.4 N/A
1:00 N/A 8 89 6 SE 23 101.4 N/A
00:00 N/A 8 88 6 SE 21 101.4 N/A
01 September 2015
23:00 N/A 8 88 6 ESE 20 N/A N/A
22:00 N/A 8 85 6 SE 18 N/A N/A
21:00 N/A 8 86 6 SE 17 N/A N/A
20:00 N/A 8 85 6 SE 25 101.2 N/A
19:00 N/A 8 84 6 SE 25 101.2 N/A
18:00 N/A 9   83 6 SE 30 gust 38 101.1 N/A
17:00 Mostly Cloudy 9   85 6 SE 27 101.3 16
16:00 Mostly Cloudy 9   84 6 SE 28 101.2 16
15:00 Mostly Cloudy 9   81 6 SE 28 gust 40 101.2 16
14:00 Mostly Cloudy 9   80 6 SE 34 101.1 16
13:00 Mostly Cloudy 9   83 6 SSE 39 gust 52 101.0 16
12:00 Mostly Cloudy 9   82 6 SE 45 101.0 16
11:00 Mostly Cloudy 9   87 7 SE 37 gust 46 100.9 16
10:00 Mostly Cloudy 8 88 7 ESE 39 gust 52 100.9 16
9:00 Mostly Cloudy 8 89 7 ESE 37 gust 50 100.8 16
8:00 Mostly Cloudy 8 90 7 SE 34 100.8 16
7:00 N/A 8 91 7 SE 29 gust 38 100.6 N/A
6:00 N/A 8 90 7 ESE 33 100.5 N/A
5:00 N/A 8 89 7 ESE 36 100.5 N/A
4:00 N/A 9   87 7 ESE 34 100.4 N/A
N/A Not available
↑ Highest temperature
↓ Lowest temperature

If you require additional historical weather information, please visit Climate Data Online.

What we are doing

Date modified: